Time;durP1;ratioP1;P1;durP2;ratioP2;P2;SDS_P1;SDS_P2;PMS_P1;PMS_P2;Temp;Humidity;BMP_temperature;BMP_pressure;BME280_temperature;BME280_humidity;BME280_pressure;Samples;Min_cycle;Max_cycle;Signal;HPM_P1;HPM_P2
2022/08/13 00:00:51;;;;;;;15.40;5.70;;;;;;;18.36;60.55;101429.47;5073288;28;20048;-74
2022/08/13 00:03:18;;;;;;;16.70;6.60;;;;;;;18.32;61.38;101431.59;5074914;28;20024;-74
2022/08/13 00:05:43;;;;;;;17.88;5.85;;;;;;;18.28;59.07;101437.50;5073542;28;20027;-74
2022/08/13 00:08:09;;;;;;;13.15;5.28;;;;;;;18.27;61.24;101433.06;5074966;28;20024;-74
2022/08/13 00:10:34;;;;;;;10.88;4.85;;;;;;;18.27;62.42;101438.50;5074626;28;20032;-74
2022/08/13 00:13:03;;;;;;;17.65;5.50;;;;;;;18.24;59.27;101438.78;5074374;28;20098;-74
2022/08/13 00:15:41;;;;;;;15.55;5.63;;;;;;;18.21;60.72;101439.09;5073230;28;20066;-74
2022/08/13 00:18:09;;;;;;;13.05;5.57;;;;;;;18.18;60.80;101434.78;5074617;28;20531;-74
2022/08/13 00:20:40;;;;;;;21.42;5.47;;;;;;;18.15;61.34;101438.66;5073173;28;20024;-74
2022/08/13 00:23:08;;;;;;;16.00;5.93;;;;;;;18.12;60.58;101436.25;5074551;28;20025;-74
2022/08/13 00:25:34;;;;;;;13.93;5.15;;;;;;;18.13;60.41;101434.41;5074509;28;20103;-74
2022/08/13 00:28:02;;;;;;;16.73;5.68;;;;;;;18.09;60.57;101439.25;5073546;28;20025;-74
2022/08/13 00:30:31;;;;;;;17.02;6.07;;;;;;;18.07;60.05;101433.13;5074118;28;20083;-74
2022/08/13 00:32:59;;;;;;;15.18;5.55;;;;;;;18.05;59.17;101440.56;5074363;28;20021;-74
2022/08/13 00:35:25;;;;;;;18.02;5.88;;;;;;;18.01;60.10;101441.88;5074265;28;20384;-74
2022/08/13 00:37:50;;;;;;;15.35;5.75;;;;;;;17.98;59.71;101439.47;5074115;28;20060;-74
2022/08/13 00:40:17;;;;;;;15.30;5.63;;;;;;;17.97;61.14;101435.00;5074154;28;20087;-74
2022/08/13 00:42:43;;;;;;;13.45;5.38;;;;;;;17.95;60.09;101437.88;5072895;28;20063;-74
2022/08/13 00:45:09;;;;;;;13.38;5.50;;;;;;;17.96;61.75;101441.44;5072717;28;20070;-74
2022/08/13 00:50:19;;;;;;;14.35;5.57;;;;;;;17.90;60.57;101442.03;5074013;28;20077;-74
2022/08/13 00:52:45;;;;;;;15.88;5.97;;;;;;;17.87;60.14;101442.31;5073986;28;20553;-74
2022/08/13 00:55:17;;;;;;;16.65;5.70;;;;;;;17.82;60.42;101435.44;5072488;28;20028;-74
2022/08/13 00:57:45;;;;;;;16.85;5.35;;;;;;;17.79;60.90;101445.75;5073724;28;20021;-74
2022/08/13 01:00:16;;;;;;;18.40;5.60;;;;;;;17.76;61.26;101441.47;5073606;28;20024;-74
2022/08/13 01:02:45;;;;;;;15.13;5.03;;;;;;;17.75;62.06;101442.44;5072724;28;20503;-75
2022/08/13 01:05:11;;;;;;;16.08;6.05;;;;;;;17.73;59.38;101441.75;5073741;28;20162;-75
2022/08/13 01:07:41;;;;;;;15.52;6.20;;;;;;;17.75;60.86;101447.88;5072595;28;20071;-75
2022/08/13 01:10:07;;;;;;;;;;;;;;;17.80;60.08;101448.31;5074063;28;20027;-75
2022/08/13 01:12:36;;;;;;;16.23;6.05;;;;;;;17.68;60.36;101449.47;5073790;28;19915;-75
2022/08/13 01:15:03;;;;;;;18.83;6.60;;;;;;;17.64;60.03;101442.59;5073537;28;20024;-75
2022/08/13 01:17:30;;;;;;;16.00;5.88;;;;;;;17.58;62.39;101445.91;5073396;28;20040;-75
2022/08/13 01:19:56;;;;;;;15.90;6.18;;;;;;;17.56;61.93;101443.31;5073643;28;20020;-75
2022/08/13 01:22:24;;;;;;;15.13;5.85;;;;;;;17.53;61.71;101446.34;5073498;28;20031;-75
2022/08/13 01:24:50;;;;;;;20.08;6.10;;;;;;;17.51;61.57;101450.19;5073358;28;20028;-75
2022/08/13 01:27:18;;;;;;;15.75;6.85;;;;;;;17.46;61.74;101445.19;5072061;28;20422;-75
2022/08/13 01:29:47;;;;;;;15.32;6.35;;;;;;;17.41;61.85;101448.34;5073171;28;20082;-75
2022/08/13 01:32:15;;;;;;;18.80;6.95;;;;;;;17.38;61.87;101453.19;5072874;28;20063;-75
2022/08/13 01:34:45;;;;;;;19.52;6.65;;;;;;;17.34;61.71;101447.19;5073180;28;20399;-75
2022/08/13 01:37:12;;;;;;;17.50;6.88;;;;;;;17.33;62.03;101450.06;5072909;28;20032;-75
2022/08/13 01:39:38;;;;;;;16.13;6.78;;;;;;;17.30;61.33;101449.31;5073291;28;20052;-75
2022/08/13 01:42:06;;;;;;;19.00;7.07;;;;;;;17.28;60.83;101450.47;5073111;28;20039;-75
2022/08/13 01:44:32;;;;;;;17.98;6.78;;;;;;;17.23;63.07;101448.19;5072954;28;20036;-75
2022/08/13 01:52:34;;;;;;;21.45;6.63;;;;;;;17.20;63.40;101443.00;5073097;28;20085;-75
2022/08/13 01:55:01;;;;;;;18.73;7.07;;;;;;;17.17;61.74;101446.03;5072551;28;20020;-75
2022/08/13 01:57:27;;;;;;;16.80;6.50;;;;;;;17.14;62.05;101440.88;5072569;28;20108;-75
2022/08/13 01:59:53;;;;;;;18.15;6.80;;;;;;;17.11;62.29;101442.00;5072547;28;20078;-75
2022/08/13 02:02:21;;;;;;;16.55;6.43;;;;;;;17.07;62.12;101443.31;5071271;28;20484;-75
2022/08/13 02:04:46;;;;;;;16.38;6.63;;;;;;;17.05;63.35;101437.16;5072545;28;20024;-75
2022/08/13 02:07:13;;;;;;;17.05;6.25;;;;;;;17.03;62.79;101436.44;5072707;28;20434;-75
2022/08/13 02:09:41;;;;;;;17.08;6.68;;;;;;;17.00;62.55;101438.56;5071151;28;20017;-75
2022/08/13 02:12:09;;;;;;;20.27;6.60;;;;;;;17.00;62.71;101442.16;5070973;28;20115;-75
2022/08/13 02:14:34;;;;;;;17.77;6.32;;;;;;;16.99;61.80;101439.59;5072555;28;20463;-75
2022/08/13 02:17:03;;;;;;;18.65;6.47;;;;;;;16.94;61.65;101439.97;5072287;28;20032;-75
2022/08/13 02:19:29;;;;;;;17.00;6.82;;;;;;;16.93;62.52;101435.56;5072362;28;20599;-75
2022/08/13 02:21:55;;;;;;;18.52;7.20;;;;;;;16.90;63.22;101433.97;5072645;28;20111;-75
2022/08/13 02:24:21;;;;;;;15.90;6.82;;;;;;;16.87;62.64;101436.09;5072343;28;20118;-75
2022/08/13 02:26:46;;;;;;;17.83;7.05;;;;;;;16.82;62.82;101441.91;5070988;28;20595;-75
2022/08/13 02:29:13;;;;;;;19.63;7.03;;;;;;;16.81;62.96;101437.50;5072213;28;20020;-75
2022/08/13 02:31:42;;;;;;;17.85;7.10;;;;;;;16.78;62.76;101429.66;5070552;28;20412;-75
2022/08/13 02:34:09;;;;;;;17.43;7.17;;;;;;;16.75;63.49;101440.75;5072192;28;20032;-75
2022/08/13 02:36:39;;;;;;;20.20;7.60;;;;;;;16.70;63.39;101435.75;5072091;28;20078;-75
2022/08/13 02:39:06;;;;;;;21.02;8.18;;;;;;;16.66;63.53;101436.16;5072535;28;20066;-75
2022/08/13 02:41:38;;;;;;;17.58;7.07;;;;;;;16.62;63.48;101430.16;5072120;28;20034;-75
2022/08/13 02:44:05;;;;;;;18.23;7.22;;;;;;;16.57;63.36;101433.31;5070972;28;20021;-75
2022/08/13 02:46:30;;;;;;;19.52;7.80;;;;;;;16.54;63.25;101425.41;5072063;28;20029;-75
2022/08/13 02:48:58;;;;;;;19.50;7.15;;;;;;;16.54;63.23;101432.69;5072176;28;20017;-75
2022/08/13 02:51:24;;;;;;;16.00;7.13;;;;;;;16.52;63.73;101429.28;5070508;28;20021;-75
2022/08/13 02:53:50;;;;;;;18.90;7.20;;;;;;;16.45;63.31;101431.66;5072150;28;20073;-75
2022/08/13 02:56:15;;;;;;;17.92;8.00;;;;;;;16.44;64.31;101432.66;5071892;28;20035;-75
2022/08/13 02:58:41;;;;;;;20.40;7.47;;;;;;;16.43;64.01;101436.38;5070707;28;20051;-75
2022/08/13 03:01:10;;;;;;;24.02;8.40;;;;;;;16.41;63.44;101436.53;5072182;28;20124;-75
2022/08/13 03:03:36;;;;;;;20.17;8.27;;;;;;;16.40;63.46;101440.22;5051971;28;20055;-75
2022/08/13 03:06:02;;;;;;;19.55;8.70;;;;;;;16.39;64.41;101433.06;5051806;28;20087;-75
2022/08/13 03:08:28;;;;;;;21.77;8.82;;;;;;;16.38;63.84;101439.50;5051884;28;20420;-75
2022/08/13 03:10:55;;;;;;;20.63;8.68;;;;;;;16.35;64.35;101431.63;5051776;28;20053;-75
2022/08/13 03:13:32;;;;;;;25.90;8.68;;;;;;;16.31;64.07;101432.91;5051904;28;20036;-75
2022/08/13 03:15:57;;;;;;;23.42;8.35;;;;;;;16.30;64.12;101436.59;5050496;28;20021;-75
2022/08/13 03:18:24;;;;;;;21.85;8.38;;;;;;;16.24;64.15;101432.56;5051766;28;20361;-75
2022/08/13 03:20:49;;;;;;;21.38;8.82;;;;;;;16.22;64.31;101439.13;5050512;28;20527;-75
2022/08/13 03:23:16;;;;;;;19.85;8.75;;;;;;;16.18;64.48;101438.53;5051815;28;20092;-75
2022/08/13 03:25:41;;;;;;;22.90;8.43;;;;;;;16.17;64.89;101435.97;5051896;28;20566;-75
2022/08/13 03:28:07;;;;;;;19.15;8.38;;;;;;;16.16;64.00;101436.97;5050449;28;20029;-75
2022/08/13 03:30:34;;;;;;;20.80;8.80;;;;;;;16.15;65.05;101437.94;5053640;28;20049;-75
2022/08/13 03:33:11;;;;;;;18.85;8.45;;;;;;;16.18;64.06;101443.09;5071734;28;20419;-75
2022/08/13 03:35:37;;;;;;;22.20;8.23;;;;;;;16.14;64.48;101436.25;5071839;28;20526;-75
2022/08/13 03:38:08;;;;;;;18.63;8.65;;;;;;;16.11;64.39;101436.53;5070188;28;20021;-75
2022/08/13 03:43:19;;;;;;;18.40;7.57;;;;;;;16.06;65.05;101437.78;5071525;28;20034;-75
2022/08/13 03:45:45;;;;;;;23.40;8.52;;;;;;;16.06;64.78;101437.78;5070344;28;20032;-75
2022/08/13 03:48:15;;;;;;;19.05;8.35;;;;;;;16.04;65.13;101433.47;5070312;28;20085;-75
2022/08/13 03:50:41;;;;;;;19.13;8.40;;;;;;;16.00;64.75;101435.59;5071617;28;20040;-75
2022/08/13 03:53:07;;;;;;;19.65;8.13;;;;;;;15.95;64.99;101435.13;5070230;28;20162;-75
2022/08/13 03:55:37;;;;;;;20.40;9.07;;;;;;;15.92;65.54;101434.56;5071373;28;20493;-75
2022/08/13 03:58:05;;;;;;;23.50;8.88;;;;;;;15.89;64.77;101433.81;5071848;28;20547;-75
2022/08/13 04:00:36;;;;;;;20.50;9.30;;;;;;;15.88;65.23;101432.06;5071198;28;20052;-75
2022/08/13 04:03:20;;;;;;;18.90;9.43;;;;;;;15.87;64.96;101434.91;5074122;28;20086;-75
2022/08/13 04:05:46;;;;;;;19.98;9.13;;;;;;;15.84;65.15;101424.34;5075132;28;20020;-75
2022/08/13 04:08:12;;;;;;;21.30;9.05;;;;;;;15.83;65.25;101433.50;5074852;28;20452;-75
2022/08/13 04:10:37;;;;;;;20.80;8.73;;;;;;;15.80;65.98;101434.63;5074583;28;20108;-75
2022/08/13 04:13:04;;;;;;;19.95;9.02;;;;;;;15.76;65.73;101426.84;5074760;28;20408;-75
2022/08/13 04:15:30;;;;;;;20.02;8.52;;;;;;;15.73;65.57;101430.69;5073457;28;20098;-75
2022/08/13 04:17:56;;;;;;;18.85;8.10;;;;;;;15.71;65.75;101430.81;5073365;28;20027;-75
2022/08/13 04:20:21;;;;;;;20.08;8.57;;;;;;;15.68;65.50;101430.19;5061826;28;20029;-75
2022/08/13 04:22:47;;;;;;;21.65;9.00;;;;;;;15.67;66.34;101431.22;5054328;28;20047;-75
2022/08/13 04:25:13;;;;;;;19.52;8.80;;;;;;;15.65;66.06;101434.06;5056095;28;20507;-75
2022/08/13 04:27:38;;;;;;;21.42;9.18;;;;;;;15.64;66.22;101445.03;5074638;28;20469;-75
2022/08/13 04:30:04;;;;;;;18.08;7.60;;;;;;;15.64;67.03;101451.28;5074540;28;20472;-75
2022/08/13 04:32:40;;;;;;;19.63;8.48;;;;;;;15.62;65.92;101447.84;5073577;28;20017;-75
2022/08/13 04:35:05;;;;;;;20.27;8.25;;;;;;;15.61;66.53;101450.69;5074480;28;20107;-75
2022/08/13 04:37:31;;;;;;;19.95;8.18;;;;;;;15.60;67.55;101444.41;5072741;28;20021;-75
2022/08/13 04:39:57;;;;;;;20.83;8.02;;;;;;;15.63;65.84;101446.00;5073149;28;20023;-75
2022/08/13 04:42:22;;;;;;;19.52;8.38;;;;;;;15.65;66.50;101449.44;5074378;28;20051;-75
2022/08/13 04:44:48;;;;;;;20.00;8.05;;;;;;;15.66;66.43;101443.88;5074231;28;20059;-75
2022/08/13 04:47:13;;;;;;;18.02;7.53;;;;;;;15.68;66.87;101436.50;5074317;28;20025;-75
2022/08/13 04:49:38;;;;;;;19.25;8.43;;;;;;;15.68;66.32;101436.50;5072796;28;20043;-75
2022/08/13 04:52:03;;;;;;;16.83;7.38;;;;;;;15.71;66.28;101447.06;5072716;28;20024;-75
2022/08/13 04:54:29;;;;;;;17.90;8.00;;;;;;;15.71;66.96;101436.22;5074149;28;20504;-75
2022/08/13 04:56:55;;;;;;;19.13;7.97;;;;;;;15.69;66.77;101449.03;5072483;28;20086;-75
2022/08/13 04:59:22;;;;;;;19.92;7.18;;;;;;;15.73;67.13;101441.50;5074245;28;20029;-75
2022/08/13 05:01:47;;;;;;;18.58;7.97;;;;;;;15.74;67.08;101443.25;5073699;28;20437;-75
2022/08/13 05:04:13;;;;;;;17.42;7.78;;;;;;;15.75;67.25;101444.09;5072947;28;20123;-75
2022/08/13 05:06:38;;;;;;;19.17;7.85;;;;;;;15.74;67.41;101445.97;5073685;28;20037;-75
2022/08/13 05:09:03;;;;;;;17.65;7.50;;;;;;;15.76;67.86;101437.69;5072408;28;20052;-75
2022/08/13 05:11:29;;;;;;;19.60;8.40;;;;;;;15.78;67.62;101446.53;5072357;28;20054;-75
2022/08/13 05:13:54;;;;;;;18.55;8.23;;;;;;;15.80;67.67;101455.41;5072135;28;20021;-75
2022/08/13 05:16:20;;;;;;;18.02;8.30;;;;;;;15.81;68.50;101458.03;5072199;28;20033;-75
2022/08/13 05:18:53;;;;;;;24.55;9.23;;;;;;;15.85;67.07;101453.19;5072394;28;20036;-75
2022/08/13 05:21:22;;;;;;;19.92;8.75;;;;;;;15.86;68.18;101455.75;5073427;28;20097;-75
2022/08/13 05:23:53;;;;;;;18.92;8.23;;;;;;;15.89;68.33;101449.22;5072174;28;20361;-75
2022/08/13 05:26:21;;;;;;;18.52;8.30;;;;;;;15.90;68.58;101449.09;5072207;28;20101;-75
2022/08/13 05:28:47;;;;;;;20.95;8.25;;;;;;;15.94;68.27;101457.81;5073342;28;20024;-75
2022/08/13 05:31:12;;;;;;;20.33;9.32;;;;;;;15.97;67.72;101456.69;5072979;28;20059;-75
2022/08/13 05:33:37;;;;;;;20.60;8.90;;;;;;;16.01;67.53;101459.00;5072000;28;20114;-75
2022/08/13 05:36:03;;;;;;;17.30;7.93;;;;;;;16.07;66.33;101461.16;5073002;28;20027;-75
2022/08/13 05:38:31;;;;;;;19.08;8.38;;;;;;;16.16;68.08;101455.94;5073199;28;20021;-75
2022/08/13 05:40:58;;;;;;;17.75;8.25;;;;;;;16.20;67.93;101457.41;5072960;28;20455;-75
2022/08/13 05:43:26;;;;;;;20.13;8.40;;;;;;;16.24;66.92;101454.28;5073240;28;20059;-75
2022/08/13 05:45:58;;;;;;;23.75;8.35;;;;;;;16.33;69.12;101449.91;5071592;28;20071;-75
2022/08/13 05:48:25;;;;;;;19.80;8.65;;;;;;;16.37;66.94;101459.47;5072882;28;20503;-75
2022/08/13 05:50:50;;;;;;;17.27;8.05;;;;;;;16.42;67.97;101459.06;5072796;28;20025;-75
2022/08/13 05:53:17;;;;;;;20.10;8.98;;;;;;;16.49;66.61;101459.41;5073042;28;20365;-75
2022/08/13 05:55:42;;;;;;;19.13;8.05;;;;;;;16.57;65.63;101463.16;5072789;28;20021;-75
2022/08/13 05:58:12;;;;;;;19.77;7.90;;;;;;;16.64;67.05;101459.88;5071423;28;20035;-75
2022/08/13 06:03:27;;;;;;;23.77;7.80;;;;;;;16.76;68.61;101456.06;5073016;28;19931;-74
2022/08/13 06:05:57;;;;;;;20.83;7.70;;;;;;;16.84;67.60;101460.78;5072893;28;20050;-74
2022/08/13 06:08:30;;;;;;;17.75;7.85;;;;;;;16.90;67.46;101454.84;5072692;28;20021;-74
2022/08/13 06:11:01;;;;;;;18.40;7.75;;;;;;;16.97;68.97;101458.72;5072558;28;20028;-74
2022/08/13 06:13:28;;;;;;;17.90;8.00;;;;;;;17.04;69.33;101462.59;5072998;28;20036;-74
2022/08/13 06:16:00;;;;;;;19.63;7.60;;;;;;;17.12;65.16;101459.19;5072442;28;20567;-74
2022/08/13 06:18:35;;;;;;;20.23;7.05;;;;;;;17.19;65.18;101459.47;5072528;28;20459;-74
2022/08/13 06:21:03;;;;;;;18.42;7.20;;;;;;;17.26;64.50;101461.50;5072458;28;20032;-74
2022/08/13 06:23:32;;;;;;;21.90;7.70;;;;;;;17.34;64.12;101460.78;5071118;28;20021;-74
2022/08/13 06:25:59;;;;;;;22.42;7.57;;;;;;;17.42;62.80;101452.78;5071474;28;20055;-74
2022/08/13 06:28:28;;;;;;;16.13;6.80;;;;;;;17.56;60.93;101453.34;5072356;28;20028;-74
2022/08/13 06:30:54;;;;;;;21.02;7.03;;;;;;;17.62;61.14;101459.06;5070471;28;20079;-74
2022/08/13 06:33:21;;;;;;;21.13;7.47;;;;;;;17.75;60.16;101456.03;5071016;28;20081;-74
2022/08/13 06:35:57;;;;;;;16.30;6.50;;;;;;;17.86;60.54;101465.06;5072351;28;20033;-74
2022/08/13 06:38:35;;;;;;;20.30;7.38;;;;;;;18.00;59.05;101453.75;5070869;28;20017;-74
2022/08/13 06:41:03;;;;;;;14.80;6.00;;;;;;;18.05;55.38;101456.03;5072237;28;20032;-74
2022/08/13 06:43:30;;;;;;;15.88;6.30;;;;;;;18.17;58.98;101460.31;5070924;28;20476;-74
2022/08/13 06:45:59;;;;;;;17.45;7.20;;;;;;;18.30;57.78;101457.25;5072020;28;20028;-74
2022/08/13 06:48:26;;;;;;;18.80;6.90;;;;;;;18.36;58.01;101462.13;5070926;28;20032;-74
2022/08/13 06:50:52;;;;;;;18.48;7.00;;;;;;;18.45;57.07;101457.63;5071960;28;20052;-74
2022/08/13 06:53:17;;;;;;;17.38;6.28;;;;;;;18.45;55.97;101466.66;5072118;28;20074;-74
2022/08/13 06:55:45;;;;;;;16.38;6.38;;;;;;;18.56;57.53;101460.16;5071996;28;20112;-74
2022/08/13 06:58:11;;;;;;;14.98;5.75;;;;;;;18.58;55.65;101462.72;5070552;28;20029;-74
2022/08/13 07:00:38;;;;;;;18.80;7.22;;;;;;;18.70;57.20;101456.09;5071903;28;20107;-74
2022/08/13 07:03:04;;;;;;;16.00;5.95;;;;;;;18.71;54.91;101459.66;5071844;28;20050;-74
2022/08/13 07:05:35;;;;;;;13.18;5.80;;;;;;;18.81;56.36;101469.47;5071874;28;20029;-74
2022/08/13 07:08:02;;;;;;;16.58;5.30;;;;;;;18.87;55.93;101462.59;5070730;28;20393;-74
2022/08/13 07:10:28;;;;;;;15.52;4.93;;;;;;;18.89;53.52;101455.16;5070493;28;20029;-74
2022/08/13 07:12:55;;;;;;;13.95;5.50;;;;;;;18.98;54.37;101459.69;5071906;28;20537;-74
2022/08/13 07:15:23;;;;;;;18.60;6.25;;;;;;;19.00;53.63;101459.53;5071704;28;20021;-74
2022/08/13 07:17:50;;;;;;;13.15;5.63;;;;;;;19.03;54.24;101468.25;5071775;28;20021;-74
2022/08/13 07:20:16;;;;;;;15.88;5.90;;;;;;;19.11;54.05;101472.94;5070483;28;20115;-75
2022/08/13 07:22:42;;;;;;;12.80;4.68;;;;;;;19.11;52.73;101463.91;5071781;28;20478;-75
2022/08/13 07:25:09;;;;;;;10.07;4.50;;;;;;;19.12;50.61;101469.22;5070448;28;20115;-75
2022/08/13 07:27:38;;;;;;;14.45;5.18;;;;;;;19.18;52.40;101465.88;5071676;28;20024;-75
2022/08/13 07:30:04;;;;;;;15.57;5.70;;;;;;;19.29;53.68;101466.66;5071290;28;20043;-75
2022/08/13 07:32:30;;;;;;;13.40;4.53;;;;;;;19.29;53.73;101472.09;5071632;28;20319;-75
2022/08/13 07:35:00;;;;;;;12.60;4.50;;;;;;;19.37;53.05;101464.88;5070324;28;20497;-75
2022/08/13 07:37:25;;;;;;;13.07;4.97;;;;;;;19.42;53.37;101471.72;5073562;28;20074;-75
2022/08/13 07:39:50;;;;;;;11.57;4.75;;;;;;;19.44;51.04;101472.41;5075331;28;20024;-75
2022/08/13 07:42:16;;;;;;;12.48;5.28;;;;;;;19.54;53.33;101471.31;5075412;28;20016;-75
2022/08/13 07:44:42;;;;;;;14.95;5.53;;;;;;;19.62;55.04;101477.84;5075225;28;20063;-75
2022/08/13 07:47:12;;;;;;;11.50;4.32;;;;;;;19.66;51.97;101473.81;5075140;28;20456;-75
2022/08/13 07:49:40;;;;;;;12.15;4.53;;;;;;;19.71;51.60;101476.94;5075352;28;20029;-75
2022/08/13 07:52:07;;;;;;;12.43;4.78;;;;;;;19.87;53.52;101471.63;5075265;28;20066;-75
2022/08/13 07:54:32;;;;;;;18.45;5.18;;;;;;;19.95;52.04;101480.91;5075159;28;20035;-75
2022/08/13 07:57:00;;;;;;;13.00;4.70;;;;;;;20.16;52.32;101473.22;5073800;28;20477;-75
2022/08/13 07:59:26;;;;;;;11.48;4.43;;;;;;;20.23;52.47;101467.97;5074908;28;20021;-75
2022/08/13 08:01:53;;;;;;;14.82;5.07;;;;;;;20.37;51.86;101466.53;5074682;28;20381;-75
2022/08/13 08:04:22;;;;;;;11.18;4.18;;;;;;;20.50;51.58;101476.97;5073575;28;20499;-75
2022/08/13 08:06:48;;;;;;;11.50;4.60;;;;;;;20.49;51.25;101484.31;5074914;28;20016;-75
2022/08/13 08:09:26;;;;;;;13.50;4.47;;;;;;;20.51;51.93;101478.69;5074895;28;20028;-75
2022/08/13 08:14:38;;;;;;;12.73;5.13;;;;;;;20.75;50.81;101475.28;5074979;28;20063;-75
2022/08/13 08:17:08;;;;;;;10.60;4.00;;;;;;;20.71;51.28;101468.41;5074586;28;20025;-75
2022/08/13 08:19:33;;;;;;;8.80;3.75;;;;;;;20.70;51.48;101473.00;5074658;28;20081;-75
2022/08/13 08:21:59;;;;;;;8.13;3.88;;;;;;;20.76;51.67;101474.22;5074559;28;20025;-75
2022/08/13 08:24:26;;;;;;;9.57;3.80;;;;;;;20.73;50.60;101474.56;5074612;28;20092;-75
2022/08/13 08:26:55;;;;;;;9.98;3.75;;;;;;;20.81;50.86;101481.97;5074174;28;20099;-75
2022/08/13 08:29:21;;;;;;;12.88;4.70;;;;;;;20.97;50.74;101483.88;5073281;28;20519;-75
2022/08/13 08:31:48;;;;;;;10.50;4.13;;;;;;;21.04;50.84;101477.59;5074010;28;20056;-75
2022/08/13 08:34:17;;;;;;;10.48;4.20;;;;;;;21.10;51.02;101481.56;5074445;28;20397;-75
2022/08/13 08:36:42;;;;;;;8.95;4.40;;;;;;;21.30;50.53;101479.34;5073074;28;20028;-75
2022/08/13 08:42:35;;;;;;;9.73;4.40;;;;;;;21.39;50.21;101486.56;5074228;28;20074;-75
2022/08/13 08:44:59;;;;;;;11.27;4.50;;;;;;;21.42;50.57;101485.34;5073891;28;20365;-75
2022/08/13 08:47:29;;;;;;;8.52;3.80;;;;;;;21.54;50.30;101480.44;5072106;28;20042;-75
2022/08/13 08:49:58;;;;;;;8.30;3.92;;;;;;;21.60;50.73;101483.38;5072663;28;20025;-75
2022/08/13 08:55:12;;;;;;;10.48;3.92;;;;;;;21.62;51.13;101491.41;5062534;28;20510;-75
2022/08/13 08:57:39;;;;;;;10.02;4.10;;;;;;;21.71;50.03;101478.59;5073900;28;20029;-75
2022/08/13 09:00:05;;;;;;;10.32;4.10;;;;;;;21.75;50.71;101475.31;5073433;28;20024;-75
2022/08/13 09:02:33;;;;;;;10.93;4.25;;;;;;;21.80;50.85;101480.28;5072379;28;20028;-75
2022/08/13 09:05:01;;;;;;;8.65;3.70;;;;;;;21.77;51.85;101481.50;5072587;28;20448;-75
2022/08/13 09:07:29;;;;;;;9.88;4.47;;;;;;;21.86;51.08;101478.75;5072465;28;20020;-75
2022/08/13 09:09:57;;;;;;;7.90;3.88;;;;;;;22.03;48.56;101482.34;5072136;28;20037;-75
2022/08/13 09:12:26;;;;;;;9.30;3.95;;;;;;;22.15;48.06;101479.06;5073742;28;20114;-75
2022/08/13 09:14:52;;;;;;;22.30;5.03;;;;;;;22.34;47.23;101471.53;5073401;28;20384;-75
2022/08/13 09:17:20;;;;;;;7.85;3.95;;;;;;;22.35;48.18;101462.28;5073484;28;20028;-75
2022/08/13 09:19:46;;;;;;;11.45;3.88;;;;;;;22.30;50.82;101464.66;5073693;28;20107;-75
2022/08/13 09:22:15;;;;;;;11.30;4.30;;;;;;;22.49;48.72;101464.31;5072122;28;20128;-75
2022/08/13 09:24:45;;;;;;;9.30;4.00;;;;;;;22.54;49.39;101466.50;5073376;28;20032;-75
2022/08/13 09:27:15;;;;;;;10.25;4.00;;;;;;;22.49;49.88;101463.44;5071950;28;20017;-75
2022/08/13 09:29:42;;;;;;;10.90;4.22;;;;;;;22.53;48.05;101459.31;5071786;28;20036;-75
2022/08/13 09:32:08;;;;;;;6.65;3.53;;;;;;;22.61;49.55;101466.66;5071727;28;20568;-75
2022/08/13 09:34:34;;;;;;;9.50;4.32;;;;;;;22.90;45.76;101466.03;5073183;28;20416;-75
2022/08/13 09:37:01;;;;;;;7.85;3.85;;;;;;;22.76;48.46;101466.78;5071570;28;20028;-75
2022/08/13 09:39:39;;;;;;;8.13;3.58;;;;;;;22.92;46.56;101463.94;5071887;28;20024;-75
2022/08/13 09:42:11;;;;;;;10.15;4.03;;;;;;;23.05;45.19;101463.38;5073085;28;20099;-75
2022/08/13 09:44:42;;;;;;;15.88;3.95;;;;;;;23.30;43.88;101464.09;5073017;28;20416;-75
2022/08/13 09:47:10;;;;;;;8.27;3.92;;;;;;;23.34;43.79;101459.97;5072993;28;20020;-75
2022/08/13 09:49:36;;;;;;;5.72;3.38;;;;;;;23.45;42.76;101461.41;5072811;28;20071;-75
2022/08/13 09:52:01;;;;;;;7.88;3.58;;;;;;;23.35;47.01;101453.44;5072827;28;20020;-75
2022/08/13 09:54:27;;;;;;;8.18;3.75;;;;;;;23.26;47.87;101454.53;5071522;28;20029;-75
2022/08/13 09:56:55;;;;;;;10.32;4.28;;;;;;;23.28;48.24;101454.34;5071198;28;20035;-75
2022/08/13 09:59:22;;;;;;;8.30;3.93;;;;;;;23.32;46.75;101445.56;5071802;28;20029;-75
2022/08/13 10:01:50;;;;;;;8.65;3.97;;;;;;;23.34;44.71;101453.59;5071089;28;20070;-75
2022/08/13 10:04:18;;;;;;;9.85;3.75;;;;;;;23.38;46.53;101447.59;5072589;28;20028;-75
2022/08/13 10:06:47;;;;;;;8.27;3.35;;;;;;;23.44;47.16;101436.91;5072512;28;20032;-75
2022/08/13 10:09:13;;;;;;;6.70;3.20;;;;;;;23.49;46.98;101445.47;5072721;28;20107;-75
2022/08/13 10:11:39;;;;;;;9.20;3.45;;;;;;;23.43;47.39;101436.06;5072398;28;20107;-75
2022/08/13 10:14:06;;;;;;;7.85;3.30;;;;;;;23.42;46.39;101434.34;5072468;28;20095;-75
2022/08/13 10:16:31;;;;;;;7.60;3.38;;;;;;;23.51;43.77;101430.50;5072396;28;20024;-75
2022/08/13 10:18:56;;;;;;;6.22;3.20;;;;;;;23.47;44.67;101425.56;5072347;28;20078;-75
2022/08/13 10:21:22;;;;;;;8.38;3.38;;;;;;;23.65;43.49;101428.84;5072260;28;20381;-75
2022/08/13 10:23:48;;;;;;;6.03;3.13;;;;;;;23.68;42.51;101427.63;5071116;28;20024;-75
2022/08/13 10:26:18;;;;;;;5.75;3.25;;;;;;;23.87;41.36;101427.13;5072367;28;20016;-75
2022/08/13 10:28:44;;;;;;;8.80;3.60;;;;;;;23.78;43.50;101419.13;5072224;28;20027;-75
2022/08/13 10:31:09;;;;;;;5.47;2.88;;;;;;;23.77;44.26;101420.19;5070503;28;20419;-75
2022/08/13 10:33:36;;;;;;;7.93;3.25;;;;;;;23.72;46.85;101420.75;5072121;28;20100;-75
2022/08/13 10:36:03;;;;;;;10.10;3.58;;;;;;;23.90;40.28;101417.69;5072088;28;20086;-75
2022/08/13 10:38:29;;;;;;;8.15;3.47;;;;;;;24.01;41.66;101422.72;5072168;28;20028;-75
2022/08/13 10:40:56;;;;;;;6.15;2.95;;;;;;;24.00;43.68;101420.13;5070762;28;20488;-75
2022/08/13 10:43:22;;;;;;;9.27;3.55;;;;;;;24.11;40.72;101421.59;5072075;28;20388;-75
2022/08/13 10:45:49;;;;;;;6.25;3.10;;;;;;;24.05;44.99;101410.31;5070781;28;20021;-75
2022/08/13 10:48:14;;;;;;;9.05;3.60;;;;;;;24.22;39.42;101415.63;5071985;28;20056;-75
2022/08/13 10:50:41;;;;;;;7.57;3.25;;;;;;;24.29;44.38;101412.97;5072023;28;20028;-75
2022/08/13 10:53:07;;;;;;;5.93;3.25;;;;;;;24.33;38.71;101415.13;5070742;28;20017;-75
2022/08/13 10:55:35;;;;;;;4.47;2.90;;;;;;;24.23;42.85;101407.22;5071853;28;20078;-75
2022/08/13 10:58:13;;;;;;;5.65;2.80;;;;;;;24.24;41.83;101405.28;5071896;28;20476;-75
2022/08/13 11:00:38;;;;;;;7.20;2.80;;;;;;;24.45;40.28;101403.69;5070429;28;20028;-75
2022/08/13 11:03:04;;;;;;;6.03;2.90;;;;;;;24.29;45.24;101397.34;5071657;28;20110;-75
2022/08/13 11:05:29;;;;;;;6.53;2.95;;;;;;;24.49;41.74;101399.50;5070691;28;20431;-75
2022/08/13 11:07:54;;;;;;;6.43;3.00;;;;;;;24.39;44.00;101405.28;5071935;28;20017;-75
2022/08/13 11:10:20;;;;;;;9.70;3.53;;;;;;;24.55;41.44;101406.97;5071803;28;20024;-75
2022/08/13 11:12:50;;;;;;;5.68;3.08;;;;;;;24.70;36.79;101406.97;5075811;28;20392;-75
2022/08/13 11:15:22;;;;;;;7.53;3.15;;;;;;;24.85;40.28;101409.69;5075721;28;20119;-75
2022/08/13 11:17:50;;;;;;;6.55;2.92;;;;;;;24.91;37.87;101397.94;5075826;28;20064;-75
2022/08/13 11:20:19;;;;;;;4.10;2.78;;;;;;;24.81;40.10;101402.91;5075981;28;20102;-76
2022/08/13 11:22:55;;;;;;;9.25;3.50;;;;;;;24.97;38.76;101397.16;5074415;28;20024;-76
2022/08/13 11:25:21;;;;;;;3.95;2.75;;;;;;;24.92;43.23;101395.00;5075608;28;20029;-76
2022/08/13 11:27:47;;;;;;;6.80;2.95;;;;;;;24.92;43.49;101389.50;5074323;28;20484;-76
2022/08/13 11:30:14;;;;;;;7.35;3.08;;;;;;;24.94;41.99;101394.81;5073690;28;20023;-76
2022/08/13 11:32:40;;;;;;;10.00;2.67;;;;;;;24.83;43.96;101390.66;5074259;28;20102;-76
2022/08/13 11:35:06;;;;;;;6.53;3.10;;;;;;;24.75;44.63;101386.13;5075670;28;20048;-76
2022/08/13 11:37:31;;;;;;;5.75;2.90;;;;;;;24.85;42.16;101376.69;5075259;28;20101;-76
2022/08/13 11:39:57;;;;;;;5.63;2.90;;;;;;;25.03;40.71;101377.13;5073946;28;20518;-76
2022/08/13 11:42:22;;;;;;;3.22;2.33;;;;;;;25.04;41.75;101380.75;5075240;28;20110;-76